Terminal Aerodrome Forecast
Issued by NWS

Home | Current Version | Previous Version | Text Only | Print | Product List | Glossary On
Versions: 1 2 3 4 5 6 7 8 9 10 11 12 13 14 15
000
FTUS43 KAPX 021213 AAA
TAFPLN
TAF AMD
KPLN 021213Z 0212/0312 21006KT P6SM VCTS BKN045CB
      TEMPO 0213/0215 4SM TSRA OVC035CB
     FM021500 25012KT P6SM BKN120
     FM022000 36011KT 6SM -SHRA SCT025 OVC050
     FM030100 VRB03KT 6SM BR BKN030=

USA.gov is the U.S. government's official web portal to all federal, state and local government web resources and services.